This is the latest recevied weather packets stored in our database for station/object AA6HF. If no packets are shown the sender has not sent any weather packets the latest 10 day(s).
| Time | Temp. | Humidity | Pressure | Rain* | Wind** | Luminosity | Snow |
|---|---|---|---|---|---|---|---|
| 1777387570 | 16.67° C | 44% | 1015.2 hPa | 0 mm | - | - | - |
| 1777387270 | 16.67° C | 45% | 1015.1 hPa | 0 mm | - | - | - |
| 1777386970 | 15.56° C | 49% | 1015.1 hPa | 0 mm | - | - | - |
| 1777386669 | 15° C | 51% | 1015.1 hPa | 0 mm | - | - | - |
| 1777386370 | 13.89° C | 53% | 1015 hPa | 0 mm | - | - | - |
| 1777386070 | 12.78° C | 58% | 1015 hPa | 0 mm | - | - | - |
| 1777385770 | 12.78° C | 59% | 1015 hPa | 0 mm | - | - | - |
| 1777385470 | 12.22° C | 61% | 1015.1 hPa | 0 mm | - | - | - |
| 1777385170 | 12.22° C | 62% | 1015 hPa | 0 mm | - | - | - |
| 1777384870 | 11.67° C | 63% | 1015 hPa | 0 mm | - | - | - |
| 1777384570 | 11.67° C | 64% | 1015 hPa | 0 mm | - | - | - |
| 1777384270 | 11.11° C | 64% | 1015 hPa | 0 mm | - | - | - |
| 1777383970 | 11.11° C | 66% | 1014.9 hPa | 0 mm | - | - | - |
| 1777383670 | 10.56° C | 66% | 1014.9 hPa | 0 mm | - | - | - |
| 1777383370 | 10.56° C | 66% | 1014.9 hPa | 0 mm | - | - | - |
| 1777383070 | 10.56° C | 67% | 1014.7 hPa | 0 mm | - | - | - |
| 1777382770 | 10.56° C | 67% | 1014.6 hPa | 0 mm | - | - | - |
| 1777382470 | 10.56° C | 68% | 1014.5 hPa | 0 mm | - | - | - |
| 1777382170 | 10.56° C | 67% | 1014.4 hPa | 0 mm | - | - | - |
| 1777381870 | 10.56° C | 67% | 1014.3 hPa | 0 mm | - | - | - |
| 1777381570 | 10.56° C | 67% | 1014.3 hPa | 0 mm | - | - | - |
| 1777381270 | 10.56° C | 66% | 1014.3 hPa | 0 mm | - | - | - |
| 1777380970 | 10.56° C | 67% | 1014.2 hPa | 0 mm | - | - | - |
| 1777380670 | 10.56° C | 66% | 1014.1 hPa | 0 mm | - | - | - |
| 1777380370 | 10.56° C | 66% | 1014 hPa | 0 mm | - | - | - |
* Rain latest hour (hover to see other rain measurements)
** Current wind speed in m/s (hover to see current wind gust speed)